sensor_id;sensor_type;location;lat;lon;timestamp;pressure;altitude;pressure_sealevel;temperature;humidity
44992;BME280;56865;51.618;7.406;2023-08-31T00:01:48;100029.97;;;19.88;100.00
44992;BME280;56865;51.618;7.406;2023-08-31T00:04:19;100028.94;;;19.95;100.00
44992;BME280;56865;51.618;7.406;2023-08-31T00:06:49;100028.22;;;19.88;100.00
44992;BME280;56865;51.618;7.406;2023-08-31T00:09:21;100010.84;;;19.95;100.00
44992;BME280;56865;51.618;7.406;2023-08-31T00:11:52;100016.03;;;19.93;100.00
44992;BME280;56865;51.618;7.406;2023-08-31T00:14:23;100016.75;;;20.00;100.00
44992;BME280;56865;51.618;7.406;2023-08-31T00:16:53;100022.88;;;19.97;100.00
44992;BME280;56865;51.618;7.406;2023-08-31T00:19:24;100017.81;;;19.90;100.00
44992;BME280;56865;51.618;7.406;2023-08-31T00:21:54;100015.28;;;19.88;100.00
44992;BME280;56865;51.618;7.406;2023-08-31T00:24:27;100021.94;;;20.00;100.00
44992;BME280;56865;51.618;7.406;2023-08-31T00:26:58;100024.72;;;19.91;100.00
44992;BME280;56865;51.618;7.406;2023-08-31T00:29:30;100017.56;;;20.02;100.00
44992;BME280;56865;51.618;7.406;2023-08-31T00:32:00;100019.47;;;19.94;100.00
44992;BME280;56865;51.618;7.406;2023-08-31T00:34:29;100026.50;;;19.89;100.00
44992;BME280;56865;51.618;7.406;2023-08-31T00:36:59;100022.88;;;19.96;100.00
44992;BME280;56865;51.618;7.406;2023-08-31T00:39:32;100019.34;;;20.00;100.00
44992;BME280;56865;51.618;7.406;2023-08-31T00:42:03;100021.19;;;19.93;100.00
44992;BME280;56865;51.618;7.406;2023-08-31T00:44:32;100017.00;;;19.89;100.00
44992;BME280;56865;51.618;7.406;2023-08-31T00:47:02;100020.28;;;19.96;100.00
44992;BME280;56865;51.618;7.406;2023-08-31T00:49:33;100020.41;;;19.91;100.00
44992;BME280;56865;51.618;7.406;2023-08-31T00:52:03;100016.09;;;19.90;100.00
44992;BME280;56865;51.618;7.406;2023-08-31T00:54:36;100017.88;;;19.88;100.00
44992;BME280;56865;51.618;7.406;2023-08-31T00:57:09;100012.84;;;19.80;100.00
44992;BME280;56865;51.618;7.406;2023-08-31T00:59:38;100028.16;;;19.91;100.00
44992;BME280;56865;51.618;7.406;2023-08-31T01:02:11;100021.19;;;19.95;100.00
44992;BME280;56865;51.618;7.406;2023-08-31T01:04:45;100018.75;;;19.89;100.00
44992;BME280;56865;51.618;7.406;2023-08-31T01:07:25;100020.41;;;19.90;100.00
44992;BME280;56865;51.618;7.406;2023-08-31T01:10:04;100023.91;;;19.89;100.00
44992;BME280;56865;51.618;7.406;2023-08-31T01:12:39;100017.81;;;19.90;100.00
44992;BME280;56865;51.618;7.406;2023-08-31T01:15:10;100020.19;;;20.01;100.00
44992;BME280;56865;51.618;7.406;2023-08-31T01:17:44;100022.66;;;20.07;100.00
44992;BME280;56865;51.618;7.406;2023-08-31T01:20:17;100024.41;;;20.06;100.00
44992;BME280;56865;51.618;7.406;2023-08-31T01:22:51;100024.16;;;20.16;100.00
44992;BME280;56865;51.618;7.406;2023-08-31T01:25:27;100024.31;;;20.09;100.00
44992;BME280;56865;51.618;7.406;2023-08-31T01:27:59;100025.44;;;19.97;100.00
44992;BME280;56865;51.618;7.406;2023-08-31T01:30:30;100023.88;;;19.90;100.00
44992;BME280;56865;51.618;7.406;2023-08-31T01:33:03;100026.28;;;19.98;100.00
44992;BME280;56865;51.618;7.406;2023-08-31T01:35:38;100020.00;;;20.08;100.00
44992;BME280;56865;51.618;7.406;2023-08-31T01:38:10;100031.19;;;20.10;100.00
44992;BME280;56865;51.618;7.406;2023-08-31T01:40:44;100040.84;;;20.04;100.00
44992;BME280;56865;51.618;7.406;2023-08-31T01:43:17;100033.34;;;19.91;100.00
44992;BME280;56865;51.618;7.406;2023-08-31T01:45:48;100030.97;;;19.79;100.00
44992;BME280;56865;51.618;7.406;2023-08-31T01:48:18;100030.25;;;19.72;100.00
44992;BME280;56865;51.618;7.406;2023-08-31T01:50:48;100031.06;;;19.74;100.00
44992;BME280;56865;51.618;7.406;2023-08-31T01:53:17;100037.25;;;19.67;100.00
44992;BME280;56865;51.618;7.406;2023-08-31T01:55:50;100035.59;;;19.63;100.00
44992;BME280;56865;51.618;7.406;2023-08-31T01:58:20;100035.47;;;19.69;100.00
44992;BME280;56865;51.618;7.406;2023-08-31T02:00:49;100032.59;;;19.86;100.00
44992;BME280;56865;51.618;7.406;2023-08-31T02:03:19;100028.34;;;19.84;100.00
44992;BME280;56865;51.618;7.406;2023-08-31T02:05:49;100035.84;;;19.94;100.00
44992;BME280;56865;51.618;7.406;2023-08-31T02:08:19;100037.47;;;19.98;100.00
44992;BME280;56865;51.618;7.406;2023-08-31T02:10:51;100034.88;;;20.00;100.00
44992;BME280;56865;51.618;7.406;2023-08-31T02:13:21;100033.91;;;20.04;100.00
44992;BME280;56865;51.618;7.406;2023-08-31T02:15:51;100031.38;;;20.01;100.00
44992;BME280;56865;51.618;7.406;2023-08-31T02:18:21;100041.09;;;19.90;100.00
44992;BME280;56865;51.618;7.406;2023-08-31T02:20:51;100042.66;;;19.98;100.00
44992;BME280;56865;51.618;7.406;2023-08-31T02:23:24;100045.28;;;19.97;100.00
44992;BME280;56865;51.618;7.406;2023-08-31T02:25:56;100048.19;;;19.80;100.00
44992;BME280;56865;51.618;7.406;2023-08-31T02:28:26;100049.34;;;20.07;100.00
44992;BME280;56865;51.618;7.406;2023-08-31T02:31:00;100043.91;;;19.79;100.00
44992;BME280;56865;51.618;7.406;2023-08-31T02:33:30;100043.94;;;19.77;100.00
44992;BME280;56865;51.618;7.406;2023-08-31T02:36:00;100044.03;;;19.73;100.00
44992;BME280;56865;51.618;7.406;2023-08-31T02:38:30;100050.19;;;19.65;100.00
44992;BME280;56865;51.618;7.406;2023-08-31T02:41:02;100049.25;;;19.71;100.00
44992;BME280;56865;51.618;7.406;2023-08-31T02:43:32;100047.72;;;19.61;100.00
44992;BME280;56865;51.618;7.406;2023-08-31T02:46:02;100046.94;;;19.56;100.00
44992;BME280;56865;51.618;7.406;2023-08-31T02:48:32;100046.94;;;19.56;100.00
44992;BME280;56865;51.618;7.406;2023-08-31T02:51:02;100043.78;;;19.41;100.00
44992;BME280;56865;51.618;7.406;2023-08-31T02:53:33;100038.34;;;19.55;100.00
44992;BME280;56865;51.618;7.406;2023-08-31T02:56:06;100032.31;;;19.56;100.00
44992;BME280;56865;51.618;7.406;2023-08-31T02:58:36;100032.63;;;19.39;100.00
44992;BME280;56865;51.618;7.406;2023-08-31T03:01:06;100041.25;;;19.38;100.00
44992;BME280;56865;51.618;7.406;2023-08-31T03:03:38;100039.47;;;19.43;100.00
44992;BME280;56865;51.618;7.406;2023-08-31T03:06:08;100034.53;;;19.31;100.00
44992;BME280;56865;51.618;7.406;2023-08-31T03:08:38;100032.72;;;19.35;100.00
44992;BME280;56865;51.618;7.406;2023-08-31T03:11:11;100031.00;;;19.35;100.00
44992;BME280;56865;51.618;7.406;2023-08-31T03:13:43;100039.06;;;19.16;100.00
44992;BME280;56865;51.618;7.406;2023-08-31T03:16:13;100037.38;;;19.17;100.00
44992;BME280;56865;51.618;7.406;2023-08-31T03:18:42;100040.88;;;19.13;100.00
44992;BME280;56865;51.618;7.406;2023-08-31T03:21:12;100040.97;;;19.07;100.00
44992;BME280;56865;51.618;7.406;2023-08-31T03:23:42;100048.59;;;19.14;100.00
44992;BME280;56865;51.618;7.406;2023-08-31T03:26:15;100050.31;;;19.14;100.00
44992;BME280;56865;51.618;7.406;2023-08-31T03:28:46;100052.84;;;19.19;100.00
44992;BME280;56865;51.618;7.406;2023-08-31T03:31:16;100050.47;;;19.06;100.00
44992;BME280;56865;51.618;7.406;2023-08-31T03:33:46;100052.31;;;18.98;100.00
44992;BME280;56865;51.618;7.406;2023-08-31T03:36:16;100050.72;;;18.89;100.00
44992;BME280;56865;51.618;7.406;2023-08-31T03:38:46;100046.44;;;18.87;100.00
44992;BME280;56865;51.618;7.406;2023-08-31T03:41:18;100046.41;;;18.91;100.00
44992;BME280;56865;51.618;7.406;2023-08-31T03:43:50;100045.69;;;18.81;100.00
44992;BME280;56865;51.618;7.406;2023-08-31T03:46:22;100045.75;;;18.78;100.00
44992;BME280;56865;51.618;7.406;2023-08-31T03:48:53;100056.16;;;18.72;100.00
44992;BME280;56865;51.618;7.406;2023-08-31T03:51:23;100053.59;;;18.72;100.00
44992;BME280;56865;51.618;7.406;2023-08-31T03:53:52;100052.75;;;18.70;100.00
44992;BME280;56865;51.618;7.406;2023-08-31T03:56:26;100050.22;;;18.67;100.00
44992;BME280;56865;51.618;7.406;2023-08-31T03:58:55;100048.38;;;18.75;100.00
44992;BME280;56865;51.618;7.406;2023-08-31T04:01:25;100058.66;;;18.78;100.00
44992;BME280;56865;51.618;7.406;2023-08-31T04:03:57;100051.84;;;18.73;100.00
44992;BME280;56865;51.618;7.406;2023-08-31T04:06:27;100056.78;;;18.87;100.00
44992;BME280;56865;51.618;7.406;2023-08-31T04:08:57;100060.25;;;18.86;100.00
44992;BME280;56865;51.618;7.406;2023-08-31T04:11:29;100059.38;;;18.88;100.00
44992;BME280;56865;51.618;7.406;2023-08-31T04:13:59;100070.53;;;18.89;100.00
44992;BME280;56865;51.618;7.406;2023-08-31T04:16:29;100079.16;;;18.91;100.00
44992;BME280;56865;51.618;7.406;2023-08-31T04:18:59;100078.28;;;18.92;100.00
44992;BME280;56865;51.618;7.406;2023-08-31T04:21:29;100080.94;;;18.84;100.00
44992;BME280;56865;51.618;7.406;2023-08-31T04:24:00;100088.72;;;18.82;100.00
44992;BME280;56865;51.618;7.406;2023-08-31T04:26:32;100085.41;;;18.74;100.00
44992;BME280;56865;51.618;7.406;2023-08-31T04:29:05;100071.56;;;18.78;100.00
44992;BME280;56865;51.618;7.406;2023-08-31T04:31:38;100078.53;;;18.73;100.00
44992;BME280;56865;51.618;7.406;2023-08-31T04:34:07;100066.44;;;18.75;100.00
44992;BME280;56865;51.618;7.406;2023-08-31T04:36:37;100069.00;;;18.77;100.00
44992;BME280;56865;51.618;7.406;2023-08-31T04:39:07;100074.28;;;18.71;100.00
44992;BME280;56865;51.618;7.406;2023-08-31T04:41:40;100070.00;;;18.68;100.00
44992;BME280;56865;51.618;7.406;2023-08-31T04:44:10;100086.31;;;18.70;100.00
44992;BME280;56865;51.618;7.406;2023-08-31T04:46:40;100084.50;;;18.75;100.00
44992;BME280;56865;51.618;7.406;2023-08-31T04:49:09;100079.44;;;18.69;100.00
44992;BME280;56865;51.618;7.406;2023-08-31T04:51:39;100082.03;;;18.71;100.00
44992;BME280;56865;51.618;7.406;2023-08-31T04:54:09;100088.13;;;18.65;100.00
44992;BME280;56865;51.618;7.406;2023-08-31T04:56:43;100092.22;;;18.78;100.00
44992;BME280;56865;51.618;7.406;2023-08-31T04:59:13;100090.56;;;18.74;100.00
44992;BME280;56865;51.618;7.406;2023-08-31T05:01:42;100097.50;;;18.69;100.00
44992;BME280;56865;51.618;7.406;2023-08-31T05:04:12;100101.66;;;18.81;100.00
44992;BME280;56865;51.618;7.406;2023-08-31T05:06:47;100109.53;;;18.73;100.00
44992;BME280;56865;51.618;7.406;2023-08-31T05:09:19;100106.09;;;18.71;100.00
44992;BME280;56865;51.618;7.406;2023-08-31T05:11:52;100118.94;;;18.76;100.00
44992;BME280;56865;51.618;7.406;2023-08-31T05:14:22;100118.03;;;18.78;100.00
44992;BME280;56865;51.618;7.406;2023-08-31T05:16:51;100121.66;;;18.68;100.00
44992;BME280;56865;51.618;7.406;2023-08-31T05:19:21;100115.41;;;18.81;100.00
44992;BME280;56865;51.618;7.406;2023-08-31T05:21:53;100118.03;;;18.78;100.00
44992;BME280;56865;51.618;7.406;2023-08-31T05:24:26;100118.06;;;18.77;100.00
44992;BME280;56865;51.618;7.406;2023-08-31T05:26:58;100120.66;;;18.75;100.00
44992;BME280;56865;51.618;7.406;2023-08-31T05:29:29;100123.25;;;18.77;100.00
44992;BME280;56865;51.618;7.406;2023-08-31T05:31:59;100120.66;;;18.77;100.00
44992;BME280;56865;51.618;7.406;2023-08-31T05:34:29;100120.59;;;18.80;100.00
44992;BME280;56865;51.618;7.406;2023-08-31T05:37:01;100126.66;;;18.77;100.00
44992;BME280;56865;51.618;7.406;2023-08-31T05:39:33;100123.91;;;18.87;100.00
44992;BME280;56865;51.618;7.406;2023-08-31T05:42:06;100138.59;;;18.84;100.00
44992;BME280;56865;51.618;7.406;2023-08-31T05:44:36;100140.34;;;18.82;100.00
44992;BME280;56865;51.618;7.406;2023-08-31T05:47:05;100140.25;;;18.92;100.00
44992;BME280;56865;51.618;7.406;2023-08-31T05:49:35;100152.28;;;18.94;100.00
44992;BME280;56865;51.618;7.406;2023-08-31T05:52:05;100151.38;;;18.95;100.00
44992;BME280;56865;51.618;7.406;2023-08-31T05:54:35;100153.94;;;18.95;100.00
44992;BME280;56865;51.618;7.406;2023-08-31T05:57:08;100158.34;;;18.89;100.00
44992;BME280;56865;51.618;7.406;2023-08-31T05:59:38;100158.34;;;18.89;100.00
44992;BME280;56865;51.618;7.406;2023-08-31T06:02:07;100160.00;;;18.96;100.00
44992;BME280;56865;51.618;7.406;2023-08-31T06:04:38;100160.91;;;18.89;100.00
44992;BME280;56865;51.618;7.406;2023-08-31T06:07:11;100163.38;;;18.98;100.00
44992;BME280;56865;51.618;7.406;2023-08-31T06:09:40;100166.03;;;18.95;100.00
44992;BME280;56865;51.618;7.406;2023-08-31T06:12:13;100169.22;;;19.09;100.00
44992;BME280;56865;51.618;7.406;2023-08-31T06:14:43;100163.97;;;19.15;100.00
44992;BME280;56865;51.618;7.406;2023-08-31T06:17:12;100172.38;;;19.27;100.00
44992;BME280;56865;51.618;7.406;2023-08-31T06:19:42;100174.78;;;19.39;100.00
44992;BME280;56865;51.618;7.406;2023-08-31T06:22:12;100174.09;;;19.28;100.00
44992;BME280;56865;51.618;7.406;2023-08-31T06:24:42;100177.47;;;19.35;100.00
44992;BME280;56865;51.618;7.406;2023-08-31T06:27:15;100172.97;;;19.44;100.00
44992;BME280;56865;51.618;7.406;2023-08-31T06:29:45;100168.63;;;19.46;100.00
44992;BME280;56865;51.618;7.406;2023-08-31T06:32:15;100167.97;;;19.35;100.00
44992;BME280;56865;51.618;7.406;2023-08-31T06:34:45;100168.56;;;19.49;100.00
44992;BME280;56865;51.618;7.406;2023-08-31T06:37:15;100167.53;;;19.60;100.00
44992;BME280;56865;51.618;7.406;2023-08-31T06:39:45;100173.56;;;19.60;100.00
44992;BME280;56865;51.618;7.406;2023-08-31T06:42:17;100163.06;;;19.68;100.00
44992;BME280;56865;51.618;7.406;2023-08-31T06:44:47;100164.63;;;19.77;100.00
44992;BME280;56865;51.618;7.406;2023-08-31T06:47:16;100166.59;;;19.64;100.00
44992;BME280;56865;51.618;7.406;2023-08-31T06:49:47;100163.94;;;19.69;100.00
44992;BME280;56865;51.618;7.406;2023-08-31T06:52:17;100163.03;;;19.71;100.00
44992;BME280;56865;51.618;7.406;2023-08-31T06:54:57;100171.69;;;19.67;100.00
44992;BME280;56865;51.618;7.406;2023-08-31T06:57:29;100182.00;;;19.70;100.00
44992;BME280;56865;51.618;7.406;2023-08-31T06:59:59;100183.63;;;19.74;100.00
44992;BME280;56865;51.618;7.406;2023-08-31T07:02:33;100189.44;;;19.89;100.00
44992;BME280;56865;51.618;7.406;2023-08-31T07:05:03;100179.50;;;20.12;100.00
44992;BME280;56865;51.618;7.406;2023-08-31T07:07:33;100192.41;;;20.14;100.00
44992;BME280;56865;51.618;7.406;2023-08-31T07:10:03;100193.84;;;20.29;100.00
44992;BME280;56865;51.618;7.406;2023-08-31T07:12:36;100178.69;;;20.51;100.00
44992;BME280;56865;51.618;7.406;2023-08-31T07:15:06;100181.13;;;20.57;100.00
44992;BME280;56865;51.618;7.406;2023-08-31T07:17:36;100193.03;;;20.66;100.00
44992;BME280;56865;51.618;7.406;2023-08-31T07:20:08;100191.22;;;20.73;100.00
44992;BME280;56865;51.618;7.406;2023-08-31T07:22:39;100192.06;;;20.70;100.00
44992;BME280;56865;51.618;7.406;2023-08-31T07:25:09;100192.56;;;20.89;100.00
44992;BME280;56865;51.618;7.406;2023-08-31T07:27:43;100182.13;;;20.92;100.00
44992;BME280;56865;51.618;7.406;2023-08-31T07:30:13;100187.25;;;20.94;100.00
44992;BME280;56865;51.618;7.406;2023-08-31T07:32:43;100189.94;;;20.91;100.00
44992;BME280;56865;51.618;7.406;2023-08-31T07:35:12;100187.28;;;20.92;100.00
44992;BME280;56865;51.618;7.406;2023-08-31T07:37:44;100196.72;;;20.95;100.00
44992;BME280;56865;51.618;7.406;2023-08-31T07:40:14;100200.94;;;20.99;100.00
44992;BME280;56865;51.618;7.406;2023-08-31T07:42:46;100204.19;;;21.09;100.00
44992;BME280;56865;51.618;7.406;2023-08-31T07:45:17;100209.56;;;21.01;100.00
44992;BME280;56865;51.618;7.406;2023-08-31T07:47:47;100208.66;;;21.02;100.00
44992;BME280;56865;51.618;7.406;2023-08-31T07:50:17;100212.38;;;20.92;100.00
44992;BME280;56865;51.618;7.406;2023-08-31T07:52:47;100221.03;;;20.91;100.00
44992;BME280;56865;51.618;7.406;2023-08-31T07:55:16;100205.94;;;20.69;100.00
44992;BME280;56865;51.618;7.406;2023-08-31T07:57:51;100212.59;;;20.39;100.00
44992;BME280;56865;51.618;7.406;2023-08-31T08:00:23;100215.09;;;20.43;100.00
44992;BME280;56865;51.618;7.406;2023-08-31T08:02:53;100211.47;;;20.52;100.00
44992;BME280;56865;51.618;7.406;2023-08-31T08:05:23;100228.66;;;20.55;100.00
44992;BME280;56865;51.618;7.406;2023-08-31T08:07:53;100221.38;;;20.75;100.00
44992;BME280;56865;51.618;7.406;2023-08-31T08:10:22;100221.53;;;21.05;100.00
44992;BME280;56865;51.618;7.406;2023-08-31T08:12:55;100227.41;;;21.14;100.00
44992;BME280;56865;51.618;7.406;2023-08-31T08:15:25;100236.06;;;21.13;100.00
44992;BME280;56865;51.618;7.406;2023-08-31T08:17:55;100235.09;;;21.17;100.00
44992;BME280;56865;51.618;7.406;2023-08-31T08:20:31;100237.44;;;21.27;100.00
44992;BME280;56865;51.618;7.406;2023-08-31T08:23:00;100240.72;;;21.34;100.00
44992;BME280;56865;51.618;7.406;2023-08-31T08:25:30;100237.53;;;21.23;100.00
44992;BME280;56865;51.618;7.406;2023-08-31T08:28:03;100235.00;;;21.21;100.00
44992;BME280;56865;51.618;7.406;2023-08-31T08:30:33;100234.66;;;21.35;100.00
44992;BME280;56865;51.618;7.406;2023-08-31T08:33:03;100238.19;;;21.33;100.00
44992;BME280;56865;51.618;7.406;2023-08-31T08:35:36;100236.91;;;21.49;100.00
44992;BME280;56865;51.618;7.406;2023-08-31T08:38:06;100237.94;;;21.43;100.00
44992;BME280;56865;51.618;7.406;2023-08-31T08:40:36;100236.69;;;21.60;100.00
44992;BME280;56865;51.618;7.406;2023-08-31T08:43:09;100247.09;;;21.58;100.00
44992;BME280;56865;51.618;7.406;2023-08-31T08:45:40;100241.56;;;21.72;100.00
44992;BME280;56865;51.618;7.406;2023-08-31T08:48:13;100249.97;;;21.81;100.00
44992;BME280;56865;51.618;7.406;2023-08-31T08:50:46;100238.25;;;21.67;100.00
44992;BME280;56865;51.618;7.406;2023-08-31T08:53:16;100248.69;;;21.64;100.00
44992;BME280;56865;51.618;7.406;2023-08-31T08:55:46;100247.00;;;21.62;100.00
44992;BME280;56865;51.618;7.406;2023-08-31T08:58:19;100241.94;;;21.57;100.00
44992;BME280;56865;51.618;7.406;2023-08-31T09:00:49;100241.00;;;21.61;100.00
44992;BME280;56865;51.618;7.406;2023-08-31T09:03:20;100242.81;;;21.57;100.00
44992;BME280;56865;51.618;7.406;2023-08-31T09:05:50;100245.25;;;21.62;100.00
44992;BME280;56865;51.618;7.406;2023-08-31T09:08:25;100245.25;;;21.62;100.00
44992;BME280;56865;51.618;7.406;2023-08-31T09:10:58;100255.47;;;21.68;100.00
44992;BME280;56865;51.618;7.406;2023-08-31T09:13:34;100252.16;;;21.63;100.00
44992;BME280;56865;51.618;7.406;2023-08-31T09:16:04;100249.19;;;21.79;100.00
44992;BME280;56865;51.618;7.406;2023-08-31T09:18:34;100254.94;;;21.90;100.00
44992;BME280;56865;51.618;7.406;2023-08-31T09:21:04;100244.31;;;21.99;100.00
44992;BME280;56865;51.618;7.406;2023-08-31T09:23:33;100244.16;;;22.05;100.00
44992;BME280;56865;51.618;7.406;2023-08-31T09:26:03;100238.56;;;22.19;100.00
44992;BME280;56865;51.618;7.406;2023-08-31T09:28:40;100248.88;;;22.22;100.00
44992;BME280;56865;51.618;7.406;2023-08-31T09:31:16;100246.59;;;22.12;100.00
44992;BME280;56865;51.618;7.406;2023-08-31T09:33:49;100251.56;;;22.19;100.00
44992;BME280;56865;51.618;7.406;2023-08-31T09:36:20;100254.44;;;22.08;100.00
44992;BME280;56865;51.618;7.406;2023-08-31T09:38:52;100249.34;;;22.05;100.00
44992;BME280;56865;51.618;7.406;2023-08-31T09:41:28;100256.56;;;21.94;100.00
44992;BME280;56865;51.618;7.406;2023-08-31T09:44:02;100253.09;;;21.95;100.00
44992;BME280;56865;51.618;7.406;2023-08-31T09:46:46;100244.41;;;22.28;100.00
44992;BME280;56865;51.618;7.406;2023-08-31T09:49:17;100242.06;;;22.18;100.00
44992;BME280;56865;51.618;7.406;2023-08-31T09:51:50;100255.66;;;22.28;100.00
44992;BME280;56865;51.618;7.406;2023-08-31T09:54:21;100256.84;;;22.16;100.00
44992;BME280;56865;51.618;7.406;2023-08-31T09:56:55;100253.91;;;21.96;100.00
44992;BME280;56865;51.618;7.406;2023-08-31T09:59:28;100261.22;;;22.14;100.00
44992;BME280;56865;51.618;7.406;2023-08-31T10:01:58;100259.56;;;22.12;100.00
44992;BME280;56865;51.618;7.406;2023-08-31T10:04:31;100258.75;;;22.10;100.00
44992;BME280;56865;51.618;7.406;2023-08-31T10:07:06;100262.31;;;22.05;100.00
44992;BME280;56865;51.618;7.406;2023-08-31T10:09:40;100266.63;;;22.06;100.00
44992;BME280;56865;51.618;7.406;2023-08-31T10:12:10;100264.13;;;22.02;100.00
44992;BME280;56865;51.618;7.406;2023-08-31T10:14:43;100261.34;;;22.10;100.00
44992;BME280;56865;51.618;7.406;2023-08-31T10:17:15;100271.88;;;22.03;100.00
44992;BME280;56865;51.618;7.406;2023-08-31T10:19:45;100278.72;;;22.07;100.00
44992;BME280;56865;51.618;7.406;2023-08-31T10:22:15;100280.59;;;22.01;100.00
44992;BME280;56865;51.618;7.406;2023-08-31T10:24:58;100281.59;;;21.97;100.00
44992;BME280;56865;51.618;7.406;2023-08-31T10:27:35;100275.56;;;21.96;100.00
44992;BME280;56865;51.618;7.406;2023-08-31T10:30:23;100274.69;;;21.96;100.00
44992;BME280;56865;51.618;7.406;2023-08-31T10:35:43;100273.69;;;22.01;100.00
44992;BME280;56865;51.618;7.406;2023-08-31T10:38:23;100286.56;;;22.04;100.00
44992;BME280;56865;51.618;7.406;2023-08-31T10:40:59;100286.16;;;22.20;100.00
44992;BME280;56865;51.618;7.406;2023-08-31T10:43:45;100287.22;;;22.13;100.00
44992;BME280;56865;51.618;7.406;2023-08-31T10:46:19;100281.72;;;22.23;100.00
44992;BME280;56865;51.618;7.406;2023-08-31T10:48:54;100294.84;;;22.19;100.00
44992;BME280;56865;51.618;7.406;2023-08-31T10:51:29;100296.69;;;22.14;100.00
44992;BME280;56865;51.618;7.406;2023-08-31T10:54:09;100277.91;;;22.05;100.00
44992;BME280;56865;51.618;7.406;2023-08-31T10:56:53;100279.59;;;22.06;100.00
44992;BME280;56865;51.618;7.406;2023-08-31T10:59:23;100290.19;;;21.99;100.00
44992;BME280;56865;51.618;7.406;2023-08-31T11:01:57;100279.75;;;22.00;100.00
44992;BME280;56865;51.618;7.406;2023-08-31T11:04:30;100289.31;;;21.98;100.00
44992;BME280;56865;51.618;7.406;2023-08-31T11:09:45;100285.53;;;21.77;100.00
44992;BME280;56865;51.618;7.406;2023-08-31T11:12:15;100279.25;;;21.86;100.00
44992;BME280;56865;51.618;7.406;2023-08-31T11:14:45;100276.88;;;21.78;100.00
44992;BME280;56865;51.618;7.406;2023-08-31T11:17:19;100276.72;;;21.84;100.00
44992;BME280;56865;51.618;7.406;2023-08-31T11:19:49;100270.28;;;21.99;100.00
44992;BME280;56865;51.618;7.406;2023-08-31T11:22:19;100265.78;;;22.37;100.00
44992;BME280;56865;51.618;7.406;2023-08-31T11:24:49;100269.09;;;22.43;100.00
44992;BME280;56865;51.618;7.406;2023-08-31T11:27:19;100267.03;;;22.55;100.00
44992;BME280;56865;51.618;7.406;2023-08-31T11:29:49;100260.25;;;22.50;100.00
44992;BME280;56865;51.618;7.406;2023-08-31T11:32:22;100256.66;;;22.54;100.00
44992;BME280;56865;51.618;7.406;2023-08-31T11:34:52;100252.47;;;22.50;100.00
44992;BME280;56865;51.618;7.406;2023-08-31T11:37:22;100258.47;;;22.52;100.00
44992;BME280;56865;51.618;7.406;2023-08-31T11:39:53;100256.31;;;22.66;100.00
44992;BME280;56865;51.618;7.406;2023-08-31T11:42:23;100259.00;;;22.63;100.00
44992;BME280;56865;51.618;7.406;2023-08-31T11:44:53;100258.66;;;22.76;100.00
44992;BME280;56865;51.618;7.406;2023-08-31T11:47:25;100265.91;;;22.93;100.00
44992;BME280;56865;51.618;7.406;2023-08-31T11:49:57;100254.56;;;23.25;100.00
44992;BME280;56865;51.618;7.406;2023-08-31T11:52:28;100255.34;;;23.54;100.00
44992;BME280;56865;51.618;7.406;2023-08-31T11:54:59;100253.38;;;23.86;100.00
44992;BME280;56865;51.618;7.406;2023-08-31T11:57:29;100246.03;;;24.24;100.00
44992;BME280;56865;51.618;7.406;2023-08-31T11:59:59;100248.41;;;24.54;100.00
44992;BME280;56865;51.618;7.406;2023-08-31T12:02:37;100231.84;;;24.79;100.00
44992;BME280;56865;51.618;7.406;2023-08-31T12:05:07;100246.28;;;24.88;100.00
44992;BME280;56865;51.618;7.406;2023-08-31T12:07:39;100233.59;;;24.78;100.00
44992;BME280;56865;51.618;7.406;2023-08-31T12:10:10;100242.31;;;24.54;100.00
44992;BME280;56865;51.618;7.406;2023-08-31T12:12:43;100233.59;;;24.55;100.00
44992;BME280;56865;51.618;7.406;2023-08-31T12:15:13;100240.00;;;24.46;100.00
44992;BME280;56865;51.618;7.406;2023-08-31T12:17:47;100237.41;;;24.22;100.00
44992;BME280;56865;51.618;7.406;2023-08-31T12:20:24;100238.44;;;24.42;100.00
44992;BME280;56865;51.618;7.406;2023-08-31T12:22:54;100233.91;;;24.71;100.00
44992;BME280;56865;51.618;7.406;2023-08-31T12:25:24;100232.22;;;24.92;100.00
44992;BME280;56865;51.618;7.406;2023-08-31T12:27:54;100242.38;;;24.52;100.00
44992;BME280;56865;51.618;7.406;2023-08-31T12:30:23;100243.66;;;24.42;100.00
44992;BME280;56865;51.618;7.406;2023-08-31T12:32:56;100250.09;;;24.79;100.00
44992;BME280;56865;51.618;7.406;2023-08-31T12:35:25;100243.91;;;24.58;100.00
44992;BME280;56865;51.618;7.406;2023-08-31T12:37:57;100247.91;;;24.44;100.00
44992;BME280;56865;51.618;7.406;2023-08-31T12:40:27;100245.81;;;24.30;100.00
44992;BME280;56865;51.618;7.406;2023-08-31T12:42:57;100247.03;;;24.67;100.00
44992;BME280;56865;51.618;7.406;2023-08-31T12:45:26;100246.78;;;24.50;100.00
44992;BME280;56865;51.618;7.406;2023-08-31T12:47:59;100249.09;;;24.36;100.00
44992;BME280;56865;51.618;7.406;2023-08-31T12:50:30;100243.72;;;24.15;100.00
44992;BME280;56865;51.618;7.406;2023-08-31T12:53:00;100251.28;;;23.97;100.00
44992;BME280;56865;51.618;7.406;2023-08-31T12:55:30;100248.44;;;23.80;100.00
44992;BME280;56865;51.618;7.406;2023-08-31T12:58:00;100248.94;;;23.91;100.00
44992;BME280;56865;51.618;7.406;2023-08-31T13:00:29;100250.66;;;24.40;100.00
44992;BME280;56865;51.618;7.406;2023-08-31T13:03:02;100246.13;;;24.69;100.00
44992;BME280;56865;51.618;7.406;2023-08-31T13:05:33;100239.66;;;24.79;100.00
44992;BME280;56865;51.618;7.406;2023-08-31T13:08:04;100240.09;;;24.90;100.00